Time;durP1;ratioP1;P1;durP2;ratioP2;P2;SDS_P1;SDS_P2;PMS_P1;PMS_P2;Temp;Humidity;BMP_temperature;BMP_pressure;BME280_temperature;BME280_humidity;BME280_pressure;Samples;Min_cycle;Max_cycle;Signal;HPM_P1;HPM_P2
2023/12/23 00:02:06;;;;;;;2.13;0.70;;;12.80;99.90;;;;;;4992827;28;20487;-87
2023/12/23 00:04:31;;;;;;;2.50;0.70;;;12.80;99.90;;;;;;4996570;28;20082;-86
2023/12/23 00:06:57;;;;;;;2.20;0.77;;;11.80;99.90;;;;;;4982962;28;20430;-84
2023/12/23 00:09:24;;;;;;;2.15;0.85;;;12.80;99.90;;;;;;4985461;28;20021;-88
2023/12/23 00:11:51;;;;;;;2.22;0.80;;;12.80;99.90;;;;;;4980899;28;20029;-88
2023/12/23 00:14:17;;;;;;;2.90;0.60;;;12.80;99.90;;;;;;5021343;28;20075;-87
2023/12/23 00:16:42;;;;;;;2.38;0.77;;;12.70;99.90;;;;;;4998081;28;20045;-87
2023/12/23 00:19:09;;;;;;;1.87;0.50;;;12.80;99.90;;;;;;5005449;28;20052;-87
2023/12/23 00:21:35;;;;;;;1.73;0.82;;;12.80;99.90;;;;;;4989099;28;20047;-85
2023/12/23 00:24:01;;;;;;;2.30;0.85;;;12.80;99.90;;;;;;5004343;28;20021;-85
2023/12/23 00:26:27;;;;;;;1.70;0.77;;;12.70;99.90;;;;;;5027101;28;20084;-87
2023/12/23 00:28:53;;;;;;;2.95;0.70;;;12.70;99.90;;;;;;5014227;28;20143;-85
2023/12/23 00:31:19;;;;;;;2.45;0.77;;;12.70;99.90;;;;;;4983289;28;20021;-87
2023/12/23 00:33:47;;;;;;;2.78;0.80;;;12.80;99.90;;;;;;5009188;28;20047;-85
2023/12/23 00:36:13;;;;;;;3.30;0.70;;;12.70;99.90;;;;;;5000775;28;20354;-86
2023/12/23 00:38:39;;;;;;;2.78;0.80;;;14.40;99.90;;;;;;5021379;28;20124;-86
2023/12/23 00:41:05;;;;;;;2.88;0.80;;;12.70;99.90;;;;;;5021578;28;20284;-86
2023/12/23 00:43:30;;;;;;;2.03;0.80;;;12.70;99.90;;;;;;5004362;28;20037;-84
2023/12/23 00:45:56;;;;;;;3.00;0.90;;;12.70;99.90;;;;;;4991428;28;20084;-85
2023/12/23 00:48:22;;;;;;;4.80;0.97;;;12.70;99.90;;;;;;5015261;28;20045;-87
2023/12/23 00:50:48;;;;;;;2.25;0.70;;;12.70;99.90;;;;;;4989928;28;20033;-89
2023/12/23 00:53:14;;;;;;;3.17;0.90;;;12.70;99.90;;;;;;5001677;28;20255;-87
2023/12/23 00:55:40;;;;;;;2.17;0.65;;;;;;;;;;4994271;28;20033;-87
2023/12/23 00:58:06;;;;;;;3.10;0.80;;;12.60;99.90;;;;;;4992520;28;20503;-86
2023/12/23 01:00:31;;;;;;;3.10;0.80;;;12.60;99.90;;;;;;5012867;28;20025;-86
2023/12/23 01:02:57;;;;;;;3.60;0.80;;;10.30;99.90;;;;;;4992758;28;20025;-86
2023/12/23 01:05:23;;;;;;;1.80;0.80;;;12.60;99.90;;;;;;5014351;28;20055;-87
2023/12/23 01:07:49;;;;;;;3.73;0.83;;;12.60;99.90;;;;;;5003229;28;20935;-86
2023/12/23 01:10:15;;;;;;;1.45;0.73;;;12.60;99.90;;;;;;5019342;28;20025;-86
2023/12/23 01:12:41;;;;;;;4.03;1.00;;;12.50;99.90;;;;;;5014502;28;20160;-87
2023/12/23 01:15:07;;;;;;;2.00;0.77;;;12.50;99.90;;;;;;5013430;28;20033;-86
2023/12/23 01:17:32;;;;;;;2.28;0.82;;;12.50;99.90;;;;;;5003863;28;20040;-87
2023/12/23 01:19:58;;;;;;;2.58;0.82;;;12.50;99.90;;;;;;5005200;28;20533;-86
2023/12/23 01:22:25;;;;;;;2.33;0.80;;;12.40;99.90;;;;;;5004023;28;20022;-85
2023/12/23 01:24:51;;;;;;;3.55;0.80;;;12.50;99.90;;;;;;5002234;28;20048;-88
2023/12/23 01:27:17;;;;;;;2.93;0.90;;;12.50;99.90;;;;;;4990640;28;20108;-86
2023/12/23 01:29:44;;;;;;;2.80;1.03;;;12.40;99.90;;;;;;5014984;28;20373;-88
2023/12/23 01:32:10;;;;;;;3.78;0.90;;;12.40;99.90;;;;;;4991316;28;20028;-86
2023/12/23 01:34:36;;;;;;;2.85;1.10;;;12.40;99.90;;;;;;5001328;28;20621;-86
2023/12/23 01:37:01;;;;;;;3.23;0.90;;;12.40;99.90;;;;;;5021062;28;20024;-86
2023/12/23 01:39:28;;;;;;;2.10;0.88;;;12.40;99.90;;;;;;5006999;28;20021;-84
2023/12/23 01:41:53;;;;;;;2.92;0.93;;;12.40;99.90;;;;;;5005630;28;20037;-86
2023/12/23 01:44:19;;;;;;;3.03;0.90;;;12.40;99.90;;;;;;5028000;28;21616;-86
2023/12/23 01:46:46;;;;;;;2.90;0.77;;;12.40;99.90;;;;;;5025511;28;20103;-86
2023/12/23 01:49:13;;;;;;;3.42;0.90;;;12.40;99.90;;;;;;5029110;28;20051;-88
2023/12/23 01:51:39;;;;;;;4.13;0.90;;;12.90;99.90;;;;;;4976066;28;20024;-87
2023/12/23 01:54:05;;;;;;;2.13;0.85;;;12.30;99.90;;;;;;5000423;28;20025;-87
2023/12/23 01:56:35;;;;;;;1.85;0.77;;;12.30;99.90;;;;;;5010380;28;20242;-85
2023/12/23 01:59:02;;;;;;;3.28;0.80;;;12.30;99.90;;;;;;5030620;28;20032;-86
2023/12/23 02:01:32;;;;;;;3.83;1.08;;;12.30;99.90;;;;;;4989103;28;20025;-87
2023/12/23 02:03:58;;;;;;;3.63;0.90;;;12.30;99.90;;;;;;5006191;28;20168;-85
2023/12/23 02:06:24;;;;;;;3.03;0.70;;;12.30;99.90;;;;;;4986552;28;20495;-86
2023/12/23 02:08:50;;;;;;;3.08;0.70;;;12.30;99.90;;;;;;5015672;28;20491;-89
2023/12/23 02:11:27;;;;;;;2.47;0.80;;;12.30;99.90;;;;;;5027520;28;20019;-87
2023/12/23 02:14:04;;;;;;;2.45;0.80;;;12.30;99.90;;;;;;5004133;28;20141;-86
2023/12/23 02:16:31;;;;;;;2.53;0.70;;;12.30;99.90;;;;;;5017760;28;20056;-87
2023/12/23 02:18:57;;;;;;;2.53;0.70;;;12.30;99.90;;;;;;5018729;28;20325;-87
2023/12/23 02:21:23;;;;;;;2.13;0.70;;;12.30;99.90;;;;;;5028599;28;20029;-84
2023/12/23 02:23:49;;;;;;;2.53;0.70;;;12.30;99.90;;;;;;5013511;28;20521;-86
2023/12/23 02:26:19;;;;;;;2.20;0.70;;;12.30;99.90;;;;;;4995412;28;20068;-85
2023/12/23 02:28:51;;;;;;;1.83;0.70;;;12.20;99.90;;;;;;5019789;28;20021;-89
2023/12/23 02:31:19;;;;;;;1.80;0.60;;;12.20;99.90;;;;;;5015813;28;20422;-87
2023/12/23 02:33:47;;;;;;;2.67;0.63;;;12.20;99.90;;;;;;4992069;28;20029;-84
2023/12/23 02:36:13;;;;;;;2.38;0.70;;;12.30;99.90;;;;;;5009856;28;20196;-85
2023/12/23 02:38:39;;;;;;;2.30;0.77;;;12.30;99.90;;;;;;5047680;28;20067;-86
2023/12/23 02:41:05;;;;;;;2.53;0.70;;;15.40;99.90;;;;;;5028385;28;20021;-86
2023/12/23 02:43:31;;;;;;;4.07;1.00;;;12.30;99.90;;;;;;5023034;28;20032;-86
2023/12/23 02:45:56;;;;;;;3.50;0.70;;;12.20;99.90;;;;;;5053273;28;20129;-89
2023/12/23 02:48:22;;;;;;;2.27;0.63;;;12.20;99.90;;;;;;5024639;28;20025;-87
2023/12/23 02:50:48;;;;;;;1.77;0.68;;;12.20;99.90;;;;;;5052095;28;20032;-87
2023/12/23 02:53:14;;;;;;;1.53;0.80;;;12.20;99.90;;;;;;5030565;28;20210;-87
2023/12/23 02:55:40;;;;;;;2.50;0.73;;;12.20;99.90;;;;;;5041974;28;20018;-88
2023/12/23 02:58:07;;;;;;;2.45;0.60;;;12.20;99.90;;;;;;5032903;28;20523;-87
2023/12/23 03:00:33;;;;;;;3.83;0.70;;;12.20;99.90;;;;;;5056837;28;20016;-87
2023/12/23 03:02:59;;;;;;;2.38;0.70;;;12.20;99.90;;;;;;5031050;28;20036;-85
2023/12/23 03:05:25;;;;;;;2.50;0.60;;;12.20;99.90;;;;;;5048834;28;20048;-87
2023/12/23 03:07:51;;;;;;;2.35;0.70;;;12.20;99.90;;;;;;5044293;28;20267;-85
2023/12/23 03:10:17;;;;;;;3.45;0.80;;;12.20;99.90;;;;;;5016021;28;20593;-86
2023/12/23 03:12:43;;;;;;;3.47;1.00;;;12.20;99.90;;;;;;5017023;28;20449;-88
2023/12/23 03:15:09;;;;;;;1.95;0.60;;;12.20;99.90;;;;;;5011343;28;20530;-85
2023/12/23 03:17:35;;;;;;;2.38;0.80;;;12.20;99.90;;;;;;5006096;28;20029;-89
2023/12/23 03:20:01;;;;;;;1.97;0.90;;;12.20;99.90;;;;;;5015455;28;20078;-87
2023/12/23 03:22:26;;;;;;;2.07;0.80;;;12.20;99.90;;;;;;5000613;28;20278;-86
2023/12/23 03:24:52;;;;;;;3.05;0.60;;;12.20;99.90;;;;;;4988508;28;20045;-85
2023/12/23 03:27:18;;;;;;;4.90;1.57;;;12.20;99.90;;;;;;5016146;28;20029;-85
2023/12/23 03:29:45;;;;;;;3.83;1.00;;;12.20;99.90;;;;;;5012252;28;20661;-86
2023/12/23 03:32:10;;;;;;;3.05;0.95;;;12.20;99.90;;;;;;5022155;28;20647;-87
2023/12/23 03:34:36;;;;;;;1.50;0.73;;;12.20;99.90;;;;;;4994329;28;20227;-87
2023/12/23 03:37:03;;;;;;;4.68;0.98;;;12.20;99.90;;;;;;5003541;28;20087;-84
2023/12/23 03:39:28;;;;;;;2.08;0.80;;;12.20;99.90;;;;;;5007415;28;20033;-85
2023/12/23 03:41:55;;;;;;;2.90;0.80;;;12.20;99.90;;;;;;4995762;28;20025;-86
2023/12/23 03:44:20;;;;;;;3.17;1.20;;;12.20;99.90;;;;;;5011245;28;20385;-86
2023/12/23 03:46:46;;;;;;;4.05;1.00;;;12.20;99.90;;;;;;5014364;28;20314;-85
2023/12/23 03:49:12;;;;;;;4.10;1.20;;;12.20;99.90;;;;;;5005863;28;20026;-86
2023/12/23 03:51:38;;;;;;;3.10;1.10;;;12.20;99.90;;;;;;5012823;28;20211;-88
2023/12/23 03:54:04;;;;;;;2.70;0.95;;;12.20;99.90;;;;;;5017821;28;20491;-86
2023/12/23 03:56:31;;;;;;;4.40;1.20;;;12.20;99.90;;;;;;5006709;28;20033;-91
2023/12/23 03:58:58;;;;;;;3.33;1.10;;;12.30;99.90;;;;;;5002355;28;20058;-84
2023/12/23 04:01:24;;;;;;;2.67;0.85;;;12.20;99.90;;;;;;5022536;28;20055;-86
2023/12/23 04:03:50;;;;;;;2.13;0.98;;;12.30;99.90;;;;;;5013962;28;20234;-87
2023/12/23 04:06:16;;;;;;;2.92;0.82;;;12.00;99.90;;;;;;4995230;28;20387;-89
2023/12/23 04:08:42;;;;;;;4.15;1.48;;;12.20;99.90;;;;;;5004973;28;20017;-87
2023/12/23 04:11:08;;;;;;;3.90;1.27;;;12.20;99.90;;;;;;5001505;28;20049;-87
2023/12/23 04:13:34;;;;;;;2.97;1.00;;;12.30;99.90;;;;;;5017421;28;20084;-84
2023/12/23 04:16:04;;;;;;;2.83;1.10;;;12.00;99.90;;;;;;5024441;28;20438;-85
2023/12/23 04:18:30;;;;;;;2.95;0.90;;;12.20;99.90;;;;;;5032022;28;20582;-85
2023/12/23 04:20:56;;;;;;;2.37;0.83;;;11.60;99.90;;;;;;4995113;28;20181;-87
2023/12/23 04:23:21;;;;;;;2.97;0.98;;;12.30;99.90;;;;;;5004035;28;20071;-87
2023/12/23 04:25:48;;;;;;;3.50;1.00;;;11.40;99.90;;;;;;5019517;28;20490;-85
2023/12/23 04:28:15;;;;;;;2.23;0.80;;;12.30;99.90;;;;;;5019370;28;20043;-83
2023/12/23 04:30:41;;;;;;;2.33;0.90;;;12.20;99.90;;;;;;5027280;28;20028;-84
2023/12/23 04:33:07;;;;;;;3.30;0.90;;;12.30;99.90;;;;;;5025358;28;20158;-85
2023/12/23 04:35:33;;;;;;;2.58;0.82;;;12.30;99.90;;;;;;5030986;28;20041;-85
2023/12/23 04:37:59;;;;;;;3.80;0.90;;;;;;;;;;4992284;28;20292;-86
2023/12/23 04:40:25;;;;;;;3.72;0.80;;;;;;;;;;5030144;28;20036;-88
2023/12/23 04:42:51;;;;;;;2.30;0.90;;;12.30;99.90;;;;;;4995689;28;20136;-86
2023/12/23 04:45:18;;;;;;;1.70;0.88;;;12.30;99.90;;;;;;4997093;28;20052;-90
2023/12/23 04:47:44;;;;;;;1.50;0.70;;;12.30;99.90;;;;;;4992390;28;20028;-86
2023/12/23 04:50:10;;;;;;;3.53;0.77;;;12.30;99.90;;;;;;5012900;28;20071;-83
2023/12/23 04:52:35;;;;;;;2.30;0.80;;;12.30;99.90;;;;;;5006208;28;20116;-89
2023/12/23 04:55:05;;;;;;;1.80;0.70;;;12.30;99.90;;;;;;5017743;28;20375;-85
2023/12/23 04:57:32;;;;;;;2.42;0.70;;;12.30;99.90;;;;;;5018654;28;20041;-87
2023/12/23 04:59:59;;;;;;;3.92;0.90;;;12.30;99.90;;;;;;5028376;28;20324;-85
2023/12/23 05:02:24;;;;;;;2.87;0.80;;;12.30;99.90;;;;;;4991090;28;20418;-85
2023/12/23 05:04:51;;;;;;;4.18;1.10;;;12.30;99.90;;;;;;4997921;28;20559;-88
2023/12/23 05:07:17;;;;;;;2.47;0.73;;;12.30;99.90;;;;;;5013045;28;20029;-86
2023/12/23 05:09:43;;;;;;;2.77;0.87;;;12.30;99.90;;;;;;5001808;28;20663;-85
2023/12/23 05:12:09;;;;;;;2.28;1.00;;;12.20;99.90;;;;;;5002641;28;20549;-86
2023/12/23 05:14:35;;;;;;;3.27;0.93;;;12.20;99.90;;;;;;5004600;28;20047;-87
2023/12/23 05:17:01;;;;;;;4.15;1.00;;;;;;;;;;5007553;28;20100;-86
2023/12/23 05:19:27;;;;;;;3.20;0.70;;;12.20;99.90;;;;;;5011094;28;20118;-85
2023/12/23 05:21:52;;;;;;;2.20;0.80;;;12.20;99.90;;;;;;4992509;28;20121;-88
2023/12/23 05:24:18;;;;;;;2.63;0.80;;;12.10;99.90;;;;;;4997918;28;20040;-85
2023/12/23 05:26:44;;;;;;;2.40;0.85;;;12.10;99.90;;;;;;5007974;28;20029;-85
2023/12/23 05:29:10;;;;;;;4.45;1.10;;;12.10;99.90;;;;;;5004602;28;20033;-86
2023/12/23 05:31:36;;;;;;;2.10;0.80;;;12.10;99.90;;;;;;5018852;28;20052;-87
2023/12/23 05:34:03;;;;;;;4.05;0.90;;;12.10;99.90;;;;;;5001412;28;20022;-87
2023/12/23 05:36:28;;;;;;;5.10;1.20;;;12.10;99.90;;;;;;5028358;28;20534;-84
2023/12/23 05:38:54;;;;;;;4.30;1.00;;;12.10;99.90;;;;;;5005960;28;20040;-87
2023/12/23 05:41:20;;;;;;;2.28;0.75;;;12.10;99.90;;;;;;5025771;28;20025;-85
2023/12/23 05:43:46;;;;;;;2.70;0.87;;;11.70;99.90;;;;;;4972177;28;20429;-88
2023/12/23 05:46:12;;;;;;;1.40;0.70;;;12.10;99.90;;;;;;5000014;28;20094;-86
2023/12/23 05:48:37;;;;;;;2.17;1.00;;;12.00;99.90;;;;;;5025495;28;20021;-87
2023/12/23 05:51:06;;;;;;;4.50;1.17;;;12.00;99.90;;;;;;5026956;28;20025;-86
2023/12/23 05:53:32;;;;;;;1.63;0.73;;;12.10;99.90;;;;;;5006977;28;20025;-89
2023/12/23 05:55:58;;;;;;;1.30;0.70;;;12.10;99.90;;;;;;5009063;28;20044;-86
2023/12/23 05:58:24;;;;;;;2.00;0.88;;;12.10;99.90;;;;;;5019576;28;20395;-88
2023/12/23 06:00:50;;;;;;;2.83;0.80;;;12.00;99.90;;;;;;5004274;28;20394;-85
2023/12/23 06:03:16;;;;;;;4.95;1.17;;;12.00;99.90;;;;;;5014754;28;20487;-85
2023/12/23 06:05:41;;;;;;;5.00;1.10;;;12.40;99.90;;;;;;4997698;28;20028;-86
2023/12/23 06:08:07;;;;;;;4.53;1.23;;;12.10;99.90;;;;;;4992222;28;20487;-85
2023/12/23 06:10:33;;;;;;;3.97;0.90;;;12.10;99.90;;;;;;4999437;28;20545;-85
2023/12/23 06:12:59;;;;;;;2.17;0.93;;;12.10;99.90;;;;;;5016567;28;20125;-89
2023/12/23 06:15:25;;;;;;;3.20;0.77;;;12.10;99.90;;;;;;5013766;28;20055;-86
2023/12/23 06:17:52;;;;;;;3.80;0.95;;;12.10;99.90;;;;;;5011802;28;20076;-87
2023/12/23 06:20:18;;;;;;;4.38;1.17;;;12.10;99.90;;;;;;4999856;28;20471;-87
2023/12/23 06:22:44;;;;;;;2.17;1.07;;;12.10;99.90;;;;;;5011337;28;20349;-91
2023/12/23 06:25:10;;;;;;;3.70;1.00;;;12.10;99.90;;;;;;4996336;28;20410;-85
2023/12/23 06:27:36;;;;;;;4.60;1.15;;;12.10;99.90;;;;;;5001706;28;20150;-87
2023/12/23 06:30:02;;;;;;;4.77;1.00;;;12.10;99.90;;;;;;5000329;28;20572;-87
2023/12/23 06:32:28;;;;;;;9.73;1.75;;;12.20;99.90;;;;;;5018658;28;20022;-86
2023/12/23 06:34:55;;;;;;;3.30;1.10;;;12.20;99.90;;;;;;5037576;28;20029;-88
2023/12/23 06:37:21;;;;;;;3.25;1.10;;;12.20;99.90;;;;;;5023262;28;20028;-86
2023/12/23 06:39:47;;;;;;;5.30;1.30;;;12.20;99.90;;;;;;5016593;28;20025;-86
2023/12/23 06:42:13;;;;;;;5.20;1.20;;;12.20;99.90;;;;;;5024892;28;20029;-86
2023/12/23 06:44:39;;;;;;;2.90;1.20;;;12.20;99.90;;;;;;5021211;28;20025;-88
2023/12/23 06:47:05;;;;;;;4.67;1.27;;;12.20;99.90;;;;;;4995126;28;20025;-86
2023/12/23 06:49:31;;;;;;;4.07;1.40;;;12.20;99.90;;;;;;5006380;28;20226;-88
2023/12/23 06:51:57;;;;;;;3.88;1.42;;;12.20;99.90;;;;;;4997445;28;20021;-89
2023/12/23 06:54:24;;;;;;;6.40;1.57;;;12.30;99.90;;;;;;5017811;28;20022;-89
2023/12/23 06:56:50;;;;;;;3.20;1.20;;;12.30;99.90;;;;;;5026348;28;20021;-85
2023/12/23 06:59:16;;;;;;;2.90;1.17;;;12.30;99.90;;;;;;5023688;28;20024;-89
2023/12/23 07:01:42;;;;;;;1.87;1.10;;;12.30;99.90;;;;;;4994246;28;20406;-87
2023/12/23 07:04:08;;;;;;;3.85;1.23;;;12.30;99.90;;;;;;5024343;28;20025;-86
2023/12/23 07:06:35;;;;;;;5.60;1.33;;;12.30;99.90;;;;;;5011555;28;20565;-86
2023/12/23 07:09:01;;;;;;;3.35;1.42;;;;;;;;;;5021966;28;20293;-90
2023/12/23 07:11:27;;;;;;;3.03;1.00;;;12.30;99.90;;;;;;5036810;28;20013;-84
2023/12/23 07:13:53;;;;;;;4.60;1.20;;;12.40;99.90;;;;;;5003852;28;20458;-88
2023/12/23 07:16:19;;;;;;;3.88;1.00;;;12.40;99.90;;;;;;4989101;28;20521;-87
2023/12/23 07:18:45;;;;;;;3.28;1.42;;;12.40;99.90;;;;;;5005240;28;20402;-87
2023/12/23 07:21:14;;;;;;;5.00;1.50;;;12.40;99.90;;;;;;5034805;28;20215;-85
2023/12/23 07:23:40;;;;;;;2.92;0.98;;;12.40;99.90;;;;;;4996810;28;20459;-88
2023/12/23 07:26:11;;;;;;;7.85;1.50;;;12.40;99.90;;;;;;5011525;28;20122;-87
2023/12/23 07:28:37;;;;;;;6.07;1.47;;;12.40;99.90;;;;;;5038480;28;20398;-85
2023/12/23 07:31:03;;;;;;;2.67;1.10;;;13.30;99.90;;;;;;5001935;28;26520;-88
2023/12/23 07:33:30;;;;;;;2.65;1.13;;;12.40;99.90;;;;;;5009260;28;20470;-86
2023/12/23 07:35:57;;;;;;;4.57;1.30;;;12.40;99.90;;;;;;5014466;28;20403;-87
2023/12/23 07:38:23;;;;;;;3.00;1.08;;;12.40;99.90;;;;;;4996427;28;20033;-85
2023/12/23 07:40:49;;;;;;;6.17;1.23;;;12.50;99.90;;;;;;5030549;28;20356;-88
2023/12/23 07:43:15;;;;;;;4.15;1.15;;;12.40;99.90;;;;;;5024395;28;20182;-88
2023/12/23 07:45:42;;;;;;;3.60;1.00;;;12.40;99.90;;;;;;4998195;28;20075;-83
2023/12/23 07:48:08;;;;;;;2.67;1.08;;;12.40;99.90;;;;;;4980033;28;20235;-86
2023/12/23 07:50:34;;;;;;;4.43;1.40;;;12.40;99.90;;;;;;5015583;28;20024;-89
2023/12/23 07:52:59;;;;;;;4.72;1.40;;;12.40;99.90;;;;;;5002592;28;20211;-87
2023/12/23 07:55:26;;;;;;;5.30;1.30;;;12.40;99.90;;;;;;5012325;28;20063;-86
2023/12/23 07:57:52;;;;;;;4.23;1.50;;;12.40;99.90;;;;;;5001687;28;20275;-90
2023/12/23 08:00:18;;;;;;;4.72;1.38;;;12.40;99.90;;;;;;5019432;28;20025;-85
2023/12/23 08:02:44;;;;;;;3.75;1.10;;;12.50;99.90;;;;;;5002981;28;20054;-88
2023/12/23 08:05:10;;;;;;;2.50;1.10;;;12.40;99.90;;;;;;5026916;28;20368;-89
2023/12/23 08:07:36;;;;;;;1.77;0.90;;;12.50;99.90;;;;;;5013616;28;20021;-88
2023/12/23 08:10:04;;;;;;;2.92;1.02;;;12.50;99.90;;;;;;5009981;28;20049;-86
2023/12/23 08:12:30;;;;;;;2.33;1.00;;;12.40;99.90;;;;;;5017220;28;20021;-87
2023/12/23 08:14:56;;;;;;;3.65;1.20;;;12.50;99.90;;;;;;5009670;28;20376;-87
2023/12/23 08:17:22;;;;;;;5.00;1.08;;;12.40;99.90;;;;;;5002093;28;20100;-85
2023/12/23 08:19:49;;;;;;;2.57;1.07;;;13.10;99.90;;;;;;4996310;28;20064;-88
2023/12/23 08:22:15;;;;;;;2.92;1.00;;;12.50;99.90;;;;;;4998667;28;20024;-84
2023/12/23 08:24:41;;;;;;;4.40;1.30;;;12.50;99.90;;;;;;5005010;28;20399;-89
2023/12/23 08:27:08;;;;;;;2.87;1.20;;;12.50;99.90;;;;;;5011830;28;20238;-83
2023/12/23 08:29:34;;;;;;;4.43;1.23;;;12.50;99.90;;;;;;5019020;28;20738;-85
2023/12/23 08:32:00;;;;;;;4.03;1.00;;;12.40;99.90;;;;;;5021280;28;20104;-85
2023/12/23 08:34:27;;;;;;;2.67;0.90;;;12.50;99.90;;;;;;4997587;28;20650;-86
2023/12/23 08:36:54;;;;;;;3.13;1.00;;;12.50;99.90;;;;;;4993147;28;20132;-85
2023/12/23 08:39:21;;;;;;;2.10;0.80;;;12.50;99.90;;;;;;5009526;28;20034;-87
2023/12/23 08:41:47;;;;;;;2.60;0.80;;;14.00;99.90;;;;;;4986703;28;20597;-86
2023/12/23 08:44:13;;;;;;;2.90;0.77;;;12.60;99.90;;;;;;4999602;28;20033;-86
2023/12/23 08:46:39;;;;;;;1.52;0.77;;;12.60;99.90;;;;;;5012155;28;20028;-87
2023/12/23 08:49:06;;;;;;;3.03;0.90;;;12.60;99.90;;;;;;4996391;28;20025;-84
2023/12/23 08:51:34;;;;;;;1.98;0.85;;;12.60;99.90;;;;;;4982753;28;20037;-88
2023/12/23 08:54:00;;;;;;;3.05;1.00;;;12.70;99.90;;;;;;5013078;28;20029;-86
2023/12/23 08:56:25;;;;;;;3.30;0.80;;;12.60;99.90;;;;;;5006447;28;20072;-86
2023/12/23 08:58:51;;;;;;;2.45;0.90;;;12.70;99.90;;;;;;4994085;28;20063;-87
2023/12/23 09:01:17;;;;;;;3.10;0.80;;;12.70;99.90;;;;;;4989304;28;20036;-89
2023/12/23 09:03:43;;;;;;;3.00;1.08;;;12.70;99.90;;;;;;4978073;28;20437;-85
2023/12/23 09:06:11;;;;;;;3.30;1.00;;;12.70;99.90;;;;;;5025252;28;20395;-83
2023/12/23 09:08:38;;;;;;;4.70;1.10;;;12.70;99.90;;;;;;5016973;28;20025;-86
2023/12/23 09:11:05;;;;;;;2.03;1.15;;;12.70;99.90;;;;;;5001704;28;20076;-86
2023/12/23 09:13:31;;;;;;;2.78;0.80;;;12.80;99.90;;;;;;4999665;28;20049;-86
2023/12/23 09:16:01;;;;;;;2.27;0.90;;;12.80;99.90;;;;;;4978477;28;20609;-85
2023/12/23 09:18:27;;;;;;;2.97;0.80;;;12.80;99.90;;;;;;4978721;28;20095;-90
2023/12/23 09:20:53;;;;;;;2.55;0.98;;;12.80;99.90;;;;;;4964587;28;20640;-89
2023/12/23 09:23:18;;;;;;;2.63;1.03;;;12.80;99.90;;;;;;4993242;28;20033;-89
2023/12/23 09:25:44;;;;;;;3.47;1.42;;;12.80;99.90;;;;;;4993926;28;20495;-84
2023/12/23 09:28:10;;;;;;;3.25;1.00;;;12.80;99.90;;;;;;4969206;28;20069;-85
2023/12/23 09:30:36;;;;;;;3.63;1.10;;;12.90;99.90;;;;;;4973392;28;20590;-83
2023/12/23 09:33:03;;;;;;;2.30;1.23;;;12.90;99.90;;;;;;5010040;28;20034;-85
2023/12/23 09:35:29;;;;;;;1.30;0.82;;;12.90;99.90;;;;;;4993613;28;20143;-84
2023/12/23 09:37:56;;;;;;;3.90;1.10;;;12.90;99.90;;;;;;4999750;28;20113;-84
2023/12/23 09:40:21;;;;;;;3.57;1.20;;;12.90;99.90;;;;;;4970991;28;20542;-86
2023/12/23 09:42:48;;;;;;;3.20;1.10;;;12.90;99.90;;;;;;4981392;28;20049;-86
2023/12/23 09:45:16;;;;;;;2.17;0.90;;;13.00;99.90;;;;;;5004296;28;20041;-84
2023/12/23 09:47:43;;;;;;;2.75;1.10;;;12.90;99.90;;;;;;4979579;28;20068;-87
2023/12/23 09:50:10;;;;;;;2.27;1.10;;;11.40;99.90;;;;;;4962190;28;20318;-87
2023/12/23 09:52:36;;;;;;;3.00;1.10;;;;;;;;;;4959948;28;20014;-84
2023/12/23 09:55:04;;;;;;;2.45;1.10;;;13.00;99.90;;;;;;4978476;28;20151;-85
2023/12/23 09:57:31;;;;;;;3.25;1.23;;;12.90;99.90;;;;;;4966240;28;20453;-87
2023/12/23 09:59:58;;;;;;;2.40;1.00;;;12.90;99.90;;;;;;4970090;28;20021;-87
2023/12/23 10:02:24;;;;;;;7.80;1.73;;;13.00;99.90;;;;;;4990349;28;20092;-86
2023/12/23 10:04:50;;;;;;;3.33;1.23;;;13.00;99.90;;;;;;4963099;28;20429;-88
2023/12/23 10:07:16;;;;;;;2.58;1.10;;;13.00;99.90;;;;;;4988626;28;20033;-88
2023/12/23 10:09:42;;;;;;;4.45;1.48;;;13.00;99.90;;;;;;4985085;28;20051;-86
2023/12/23 10:12:08;;;;;;;2.07;0.97;;;13.00;99.90;;;;;;4966894;28;20141;-84
2023/12/23 10:14:34;;;;;;;3.78;0.98;;;13.00;99.90;;;;;;4985701;28;20042;-84
2023/12/23 10:17:00;;;;;;;3.03;1.00;;;13.10;99.90;;;;;;5001936;28;20091;-88
2023/12/23 10:19:26;;;;;;;3.10;1.00;;;13.10;99.90;;;;;;4996836;28;20029;-86
2023/12/23 10:21:52;;;;;;;3.35;0.90;;;13.20;99.90;;;;;;4957386;28;20029;-85
2023/12/23 10:24:18;;;;;;;4.45;0.95;;;13.30;99.90;;;;;;4981662;28;20490;-88
2023/12/23 10:26:45;;;;;;;2.37;1.00;;;13.30;99.90;;;;;;4960219;28;20028;-86
2023/12/23 10:29:16;;;;;;;4.50;1.08;;;13.40;99.90;;;;;;4998924;28;20077;-86
2023/12/23 10:31:44;;;;;;;1.75;0.90;;;13.50;99.90;;;;;;4970243;28;20434;-88
2023/12/23 10:34:12;;;;;;;1.25;0.80;;;13.60;99.90;;;;;;4989166;28;20724;-87
2023/12/23 10:36:42;;;;;;;3.20;0.80;;;13.60;99.90;;;;;;4994762;28;20784;-87
2023/12/23 10:39:28;;;;;;;2.07;1.10;;;13.70;99.90;;;;;;4992873;28;20033;-89
2023/12/23 10:42:03;;;;;;;2.60;0.90;;;13.70;99.90;;;;;;4968385;28;20971;-90
2023/12/23 10:44:30;;;;;;;1.70;0.75;;;13.80;99.90;;;;;;4983334;28;20052;-85
2023/12/23 10:46:57;;;;;;;3.50;1.10;;;13.50;99.90;;;;;;4956286;28;20222;-90
2023/12/23 10:49:24;;;;;;;3.97;1.10;;;13.90;99.90;;;;;;4990591;28;20029;-88
2023/12/23 10:51:51;;;;;;;4.60;1.00;;;13.90;99.90;;;;;;4961060;28;20022;-85
2023/12/23 10:54:18;;;;;;;2.80;1.13;;;13.80;99.90;;;;;;4960714;28;20107;-84
2023/12/23 10:56:45;;;;;;;2.80;0.80;;;13.90;99.90;;;;;;4985283;28;20124;-85
2023/12/23 10:59:11;;;;;;;3.60;1.00;;;13.90;99.90;;;;;;4969808;28;20423;-87
2023/12/23 11:01:38;;;;;;;2.07;0.80;;;13.90;99.90;;;;;;4980910;28;20120;-87
2023/12/23 11:04:05;;;;;;;1.40;0.90;;;13.90;99.90;;;;;;4987328;28;20315;-87
2023/12/23 11:06:39;;;;;;;1.90;0.70;;;13.10;99.90;;;;;;4979783;28;20041;-85
2023/12/23 11:09:08;;;;;;;2.42;0.93;;;13.80;99.90;;;;;;4972309;28;20034;-88
2023/12/23 11:11:35;;;;;;;2.97;0.80;;;12.00;99.90;;;;;;5002142;28;20014;-85
2023/12/23 11:14:04;;;;;;;5.15;1.60;;;13.80;99.90;;;;;;5010736;28;20077;-85
2023/12/23 11:16:30;;;;;;;2.90;0.90;;;13.80;99.90;;;;;;5032920;28;20127;-87
2023/12/23 11:18:56;;;;;;;2.65;1.08;;;13.70;99.90;;;;;;5018310;28;20063;-86
2023/12/23 11:21:22;;;;;;;3.63;1.00;;;13.70;99.90;;;;;;5031363;28;20060;-86
2023/12/23 11:23:48;;;;;;;4.53;1.30;;;13.70;99.90;;;;;;5020296;28;20017;-86
2023/12/23 11:26:37;;;;;;;2.75;0.82;;;13.60;99.90;;;;;;5002264;28;20034;-86
2023/12/23 11:29:14;;;;;;;4.20;1.58;;;13.60;99.90;;;;;;4997045;28;20516;-86
2023/12/23 11:31:40;;;;;;;3.88;0.95;;;13.60;99.90;;;;;;4998622;28;20258;-85
2023/12/23 11:34:17;;;;;;;2.50;1.00;;;13.60;99.90;;;;;;5032491;28;20196;-87
2023/12/23 11:36:46;;;;;;;2.17;0.70;;;13.60;99.90;;;;;;5018147;28;20057;-86
2023/12/23 11:39:15;;;;;;;1.90;0.80;;;13.60;99.90;;;;;;5005824;28;20026;-88
2023/12/23 11:41:43;;;;;;;5.95;1.17;;;13.60;99.90;;;;;;5011773;28;20018;-86
2023/12/23 11:44:11;;;;;;;3.42;0.90;;;12.20;99.90;;;;;;5019624;28;20197;-85
2023/12/23 11:46:41;;;;;;;1.20;0.60;;;13.60;99.90;;;;;;4997854;28;20060;-86
2023/12/23 11:49:10;;;;;;;3.13;0.90;;;13.60;99.90;;;;;;4982633;28;20286;-84
2023/12/23 11:51:40;;;;;;;1.70;0.70;;;13.70;99.90;;;;;;5017899;28;20092;-87
2023/12/23 11:54:07;;;;;;;3.33;0.90;;;13.70;99.90;;;;;;4986337;28;20152;-86
2023/12/23 11:56:33;;;;;;;3.15;0.90;;;13.70;99.90;;;;;;4975865;28;20057;-84
2023/12/23 11:59:01;;;;;;;1.83;0.90;;;13.70;99.90;;;;;;4989088;28;20665;-88
2023/12/23 12:01:32;;;;;;;3.13;1.00;;;13.80;99.90;;;;;;5006688;28;20022;-85
2023/12/23 12:03:58;;;;;;;2.15;0.85;;;13.70;99.90;;;;;;4969728;28;20052;-84
2023/12/23 12:06:25;;;;;;;2.83;0.80;;;13.80;99.90;;;;;;5011274;28;20799;-86
2023/12/23 12:08:52;;;;;;;1.95;0.90;;;13.80;99.90;;;;;;4994191;28;20030;-85
2023/12/23 12:11:18;;;;;;;2.07;0.80;;;13.80;99.90;;;;;;4977557;28;20799;-85
2023/12/23 12:13:47;;;;;;;2.90;0.80;;;13.90;99.90;;;;;;4978509;28;20041;-87
2023/12/23 12:16:13;;;;;;;3.17;0.93;;;13.90;99.90;;;;;;5000897;28;20048;-87
2023/12/23 12:18:42;;;;;;;8.03;1.57;;;14.00;99.90;;;;;;5008081;28;20526;-88
2023/12/23 12:21:09;;;;;;;3.65;0.85;;;14.10;99.90;;;;;;5012363;28;20749;-84
2023/12/23 12:23:35;;;;;;;1.55;0.80;;;14.20;99.90;;;;;;5016318;28;20033;-86
2023/12/23 12:26:00;;;;;;;3.10;0.88;;;14.20;99.90;;;;;;4991753;28;20451;-86
2023/12/23 12:28:27;;;;;;;2.23;0.80;;;14.20;99.90;;;;;;5003107;28;20474;-87
2023/12/23 12:30:52;;;;;;;1.63;0.80;;;14.30;99.90;;;;;;5016476;28;20104;-87
2023/12/23 12:33:18;;;;;;;2.33;0.90;;;14.30;99.90;;;;;;4992164;28;20025;-86
2023/12/23 12:35:45;;;;;;;2.53;0.70;;;14.30;99.90;;;;;;4993231;28;20090;-88
2023/12/23 12:38:11;;;;;;;3.35;0.90;;;14.30;99.90;;;;;;4996820;28;20274;-83
2023/12/23 12:40:40;;;;;;;1.45;0.80;;;14.20;99.90;;;;;;5004023;28;20056;-86
2023/12/23 12:43:06;;;;;;;2.35;0.80;;;14.20;99.90;;;;;;4993243;28;20210;-86
2023/12/23 12:45:37;;;;;;;4.40;1.33;;;14.20;99.90;;;;;;5000349;28;20037;-87